createdAt,value
2023-04-08T00:01:31.921Z,99415.75
2023-04-08T00:04:46.827Z,99400.69
2023-04-08T00:07:51.043Z,99412.25
2023-04-08T00:10:58.897Z,99401.28
2023-04-08T00:14:04.570Z,99417.81
2023-04-08T00:17:06.509Z,99397.69
2023-04-08T00:20:08.692Z,99410.72
2023-04-08T00:23:10.489Z,99397.69
2023-04-08T00:26:12.180Z,99421.66
2023-04-08T00:29:15.404Z,99398.25
2023-04-08T00:32:17.502Z,99415.41
2023-04-08T00:35:19.757Z,99427.66
2023-04-08T00:38:21.459Z,99402.66
2023-04-08T00:41:26.279Z,99425.75
2023-04-08T00:44:28.216Z,99417.28
2023-04-08T00:47:30.005Z,99397.97
2023-04-08T00:50:39.296Z,99422.59
2023-04-08T00:53:46.278Z,99403.63
2023-04-08T00:56:48.022Z,99423.06
2023-04-08T00:59:49.643Z,99425.56
2023-04-08T01:03:02.943Z,99430.72
2023-04-08T01:06:34.669Z,99427.75
2023-04-08T01:09:43.535Z,99414.78
2023-04-08T01:12:59.765Z,99427.44
2023-04-08T01:16:01.645Z,99419.28
2023-04-08T01:19:06.111Z,99426.06
2023-04-08T01:22:46.898Z,99436.78
2023-04-08T01:25:55.765Z,99413.38
2023-04-08T01:29:03.384Z,99425.72
2023-04-08T01:32:07.663Z,99440.25
2023-04-08T01:35:13.182Z,99416.13
2023-04-08T01:38:18.257Z,99427.75
2023-04-08T01:41:21.395Z,99426.72
2023-04-08T01:44:33.575Z,99409.78
2023-04-08T01:47:37.611Z,99437.97
2023-04-08T01:50:49.328Z,99436.09
2023-04-08T01:54:00.263Z,99440.66
2023-04-08T01:57:06.561Z,99423.13
2023-04-08T02:00:11.037Z,99439.06
2023-04-08T02:03:25.809Z,99419.94
2023-04-08T02:06:34.301Z,99421.03
2023-04-08T02:09:36.232Z,99423.91
2023-04-08T02:12:42.215Z,99440.66
2023-04-08T02:15:54.563Z,99443.03
2023-04-08T02:19:00.888Z,99429.22
2023-04-08T02:22:06.768Z,99427.41
2023-04-08T02:25:11.444Z,99441.66
2023-04-08T02:28:15.713Z,99411.88
2023-04-08T02:31:18.689Z,99420.94
2023-04-08T02:34:22.336Z,99428.91
2023-04-08T02:37:23.995Z,99419.63
2023-04-08T02:40:28.106Z,99434.75
2023-04-08T02:43:37.034Z,99414.34
2023-04-08T02:46:41.430Z,99418.94
2023-04-08T02:49:45.330Z,99435.47
2023-04-08T02:52:47.503Z,99421.03
2023-04-08T02:55:52.421Z,99422.09
2023-04-08T02:58:55.191Z,99417.81
2023-04-08T03:01:56.901Z,99422.63
2023-04-08T03:04:59.546Z,99429.41
2023-04-08T03:08:04.418Z,99438.25
2023-04-08T03:11:06.072Z,99438.25
2023-04-08T03:14:07.765Z,99440.44
2023-04-08T03:17:11.144Z,99423.91
2023-04-08T03:20:21.811Z,99428.91
2023-04-08T03:23:31.454Z,99416.94
2023-04-08T03:26:33.023Z,99435.06
2023-04-08T03:29:36.870Z,99435.06
2023-04-08T03:32:38.885Z,99439.06
2023-04-08T03:35:40.730Z,99437.25
2023-04-08T03:38:42.414Z,99434.47
2023-04-08T03:48:15.317Z,99431.25
2023-04-08T03:51:17.041Z,99440.03
2023-04-08T03:54:37.223Z,99420.63
2023-04-08T03:57:38.854Z,99434.47
2023-04-08T04:00:41.498Z,99430.16
2023-04-08T04:03:43.301Z,99432.06
2023-04-08T04:06:45.052Z,99416.13
2023-04-08T04:09:47.222Z,99436.84
2023-04-08T04:12:51.872Z,99440.53
2023-04-08T04:15:55.427Z,99444.63
2023-04-08T04:18:57.092Z,99440.41
2023-04-08T04:22:24.113Z,99450.56
2023-04-08T04:25:26.457Z,99448.38
2023-04-08T04:28:28.238Z,99454.25
2023-04-08T04:34:46.309Z,99440.59
2023-04-08T04:37:49.287Z,99433.34
2023-04-08T04:40:51.187Z,99422.97
2023-04-08T04:43:55.895Z,99438.22
2023-04-08T04:46:58.308Z,99461.44
2023-04-08T04:49:59.906Z,99463.91
2023-04-08T04:53:05.033Z,99442.16
2023-04-08T04:56:06.844Z,99468.97
2023-04-08T04:59:08.825Z,99454.13
2023-04-08T05:02:11.363Z,99475.34
2023-04-08T05:05:13.062Z,99468.97
2023-04-08T05:08:14.747Z,99483.94
2023-04-08T05:11:18.436Z,99451.50
2023-04-08T05:14:20.088Z,99475.81
2023-04-08T05:17:24.860Z,99455.47
2023-04-08T05:20:35.514Z,99482.00
2023-04-08T05:26:53.429Z,99466.41
2023-04-08T05:30:00.261Z,99482.00
2023-04-08T05:33:03.981Z,99482.00
2023-04-08T05:36:05.901Z,99492.56
2023-04-08T05:39:07.477Z,99485.31
2023-04-08T05:42:09.094Z,99483.69
2023-04-08T05:45:13.256Z,99494.59
2023-04-08T05:48:17.796Z,99494.78
2023-04-08T05:51:19.345Z,99499.00
2023-04-08T05:54:21.155Z,99499.81
2023-04-08T05:57:24.993Z,99504.88
2023-04-08T06:00:26.966Z,99508.56
2023-04-08T06:03:30.690Z,99513.56
2023-04-08T06:06:34.413Z,99518.03
2023-04-08T06:09:39.188Z,99521.31
2023-04-08T06:12:53.052Z,99522.84
2023-04-08T06:15:54.720Z,99518.97
2023-04-08T06:18:56.287Z,99524.88
2023-04-08T06:21:59.105Z,99524.75
2023-04-08T06:25:04.460Z,99524.75
2023-04-08T06:28:07.526Z,99530.53
2023-04-08T06:31:11.258Z,99536.91
2023-04-08T06:34:12.972Z,99537.94
2023-04-08T06:37:14.718Z,99536.84
2023-04-08T06:40:16.393Z,99535.75
2023-04-08T06:43:17.934Z,99530.16
2023-04-08T06:46:19.752Z,99540.44
2023-04-08T06:49:21.683Z,99544.72
2023-04-08T06:52:23.388Z,99536.91
2023-04-08T06:55:30.250Z,99539.91
2023-04-08T06:58:34.669Z,99544.50
2023-04-08T07:01:36.359Z,99538.94
2023-04-08T07:04:38.038Z,99538.72
2023-04-08T07:07:42.608Z,99549.28
2023-04-08T07:10:44.959Z,99553.91
2023-04-08T07:13:46.537Z,99542.31
2023-04-08T07:16:48.145Z,99553.72
2023-04-08T07:19:52.582Z,99550.91
2023-04-08T07:22:54.108Z,99560.06
2023-04-08T07:25:56.090Z,99556.09
2023-04-08T07:29:05.016Z,99549.63
2023-04-08T07:32:14.203Z,99556.81
2023-04-08T07:35:23.848Z,99565.34
2023-04-08T07:38:25.409Z,99565.66
2023-04-08T07:41:27.102Z,99563.88
2023-04-08T07:44:28.697Z,99569.16
2023-04-08T07:47:30.386Z,99558.06
2023-04-08T07:51:08.867Z,99576.59
2023-04-08T07:53:59.857Z,99566.59
2023-04-08T07:57:13.715Z,99576.44
2023-04-08T08:00:23.822Z,99551.97
2023-04-08T08:03:33.769Z,99576.28
2023-04-08T08:06:39.636Z,99564.84
2023-04-08T08:09:41.190Z,99570.50
2023-04-08T08:12:49.283Z,99586.06
2023-04-08T08:16:13.037Z,99588.56
2023-04-08T08:19:14.669Z,99572.94
2023-04-08T08:22:28.308Z,99584.28
2023-04-08T08:26:10.076Z,99588.38
2023-04-08T08:29:13.952Z,99588.56
2023-04-08T08:32:22.609Z,99577.34
2023-04-08T08:35:26.270Z,99596.66
2023-04-08T08:38:28.692Z,99590.22
2023-04-08T08:41:35.307Z,99579.00
2023-04-08T08:44:36.871Z,99600.19
2023-04-08T08:47:38.492Z,99582.06
2023-04-08T08:50:40.301Z,99595.97
2023-04-08T08:53:45.653Z,99591.78
2023-04-08T08:56:49.075Z,99604.91
2023-04-08T08:59:50.681Z,99564.72
2023-04-08T09:02:52.433Z,99603.66
2023-04-08T09:06:18.177Z,99606.19
2023-04-08T09:09:19.899Z,99587.94
2023-04-08T09:12:22.291Z,99607.03
2023-04-08T09:18:44.613Z,99587.16
2023-04-08T09:22:06.364Z,99616.78
2023-04-08T09:25:23.419Z,99571.59
2023-04-08T09:28:25.036Z,99588.59
2023-04-08T09:35:01.166Z,99615.47
2023-04-08T09:38:02.766Z,99596.16
2023-04-08T09:41:07.808Z,99611.63
2023-04-08T09:44:20.615Z,99606.63
2023-04-08T09:47:28.925Z,99584.56
2023-04-08T09:50:43.058Z,99591.72
2023-04-08T09:54:09.706Z,99598.88
2023-04-08T09:57:16.340Z,99605.91
2023-04-08T10:00:19.283Z,99620.25
2023-04-08T10:03:23.962Z,99612.66
2023-04-08T10:06:29.715Z,99613.75
2023-04-08T10:09:33.566Z,99603.00
2023-04-08T10:12:36.414Z,99615.38
2023-04-08T10:15:39.643Z,99591.56
2023-04-08T10:18:50.412Z,99615.63
2023-04-08T10:21:52.002Z,99618.44
2023-04-08T10:25:18.532Z,99621.16
2023-04-08T10:28:20.155Z,99619.31
2023-04-08T10:31:23.054Z,99586.00
2023-04-08T10:34:26.828Z,99606.41
2023-04-08T10:37:31.755Z,99603.84
2023-04-08T10:40:57.300Z,99609.31
2023-04-08T10:44:18.649Z,99621.00
2023-04-08T10:47:26.196Z,99605.06
2023-04-08T10:50:27.911Z,99596.25
2023-04-08T10:53:34.662Z,99606.50
2023-04-08T10:56:49.913Z,99602.72
2023-04-08T10:59:51.552Z,99595.06
2023-04-08T11:02:53.376Z,99584.16
2023-04-08T11:05:58.146Z,99577.72
2023-04-08T11:09:04.221Z,99582.72
2023-04-08T11:12:05.865Z,99582.06
2023-04-08T11:15:08.684Z,99568.88
2023-04-08T11:18:10.877Z,99558.28
2023-04-08T11:21:19.677Z,99586.38
2023-04-08T11:24:23.276Z,99565.97
2023-04-08T11:27:26.151Z,99591.94
2023-04-08T11:30:29.923Z,99584.13
2023-04-08T11:33:38.871Z,99589.72
2023-04-08T11:36:41.621Z,99592.88
2023-04-08T11:39:44.205Z,99598.16
2023-04-08T11:42:47.196Z,99588.59
2023-04-08T11:45:49.064Z,99585.44
2023-04-08T11:48:58.479Z,99575.44
2023-04-08T11:52:00.561Z,99585.34
2023-04-08T11:55:04.659Z,99568.53
2023-04-08T11:58:16.327Z,99580.50
2023-04-08T12:01:19.752Z,99572.50
2023-04-08T12:04:21.455Z,99539.88
2023-04-08T12:07:23.115Z,99540.19
2023-04-08T12:10:37.041Z,99565.69
2023-04-08T12:13:38.595Z,99549.63
2023-04-08T12:16:40.307Z,99564.16
2023-04-08T12:19:46.223Z,99555.78
2023-04-08T12:22:53.908Z,99566.00
2023-04-08T12:25:55.842Z,99552.97
2023-04-08T12:29:03.727Z,99555.72
2023-04-08T12:32:05.633Z,99541.34
2023-04-08T12:35:32.785Z,99556.94
2023-04-08T12:38:40.362Z,99522.75
2023-04-08T12:41:42.965Z,99550.06
2023-04-08T12:44:44.563Z,99524.75
2023-04-08T12:47:46.371Z,99552.91
2023-04-08T12:50:48.033Z,99552.56
2023-04-08T12:53:49.655Z,99549.25
2023-04-08T12:56:51.318Z,99549.50
2023-04-08T12:59:55.718Z,99525.81
2023-04-08T13:02:57.486Z,99526.94
2023-04-08T13:06:05.179Z,99527.47
2023-04-08T13:09:07.074Z,99543.97
2023-04-08T13:12:14.557Z,99550.31
2023-04-08T13:15:16.366Z,99546.09
2023-04-08T13:18:36.657Z,99555.50
2023-04-08T13:22:07.926Z,99564.41
2023-04-08T13:25:12.859Z,99550.53
2023-04-08T13:31:39.320Z,99537.13
2023-04-08T13:34:42.505Z,99553.66
2023-04-08T13:37:44.796Z,99562.78
2023-04-08T13:44:01.849Z,99557.25
2023-04-08T13:47:04.022Z,99548.84
2023-04-08T13:53:25.048Z,99551.03
2023-04-08T13:56:26.674Z,99553.63
2023-04-08T13:59:30.407Z,99548.47
2023-04-08T14:05:53.794Z,99549.06
2023-04-08T14:08:55.681Z,99565.56
2023-04-08T14:11:59.488Z,99569.84
2023-04-08T14:15:04.477Z,99556.88
2023-04-08T14:18:09.389Z,99553.13
2023-04-08T14:21:14.201Z,99545.22
2023-04-08T14:24:16.071Z,99556.44
2023-04-08T14:27:17.960Z,99560.94
2023-04-08T14:30:19.604Z,99569.00
2023-04-08T14:33:21.447Z,99546.91
2023-04-08T14:36:31.692Z,99534.97
2023-04-08T14:39:34.109Z,99558.81
2023-04-08T14:42:35.747Z,99565.91
2023-04-08T14:45:37.326Z,99569.22
2023-04-08T14:48:45.358Z,99559.13
2023-04-08T14:55:05.264Z,99555.03
2023-04-08T14:58:06.944Z,99542.91
2023-04-08T15:01:08.589Z,99560.13
2023-04-08T15:04:11.205Z,99539.16
2023-04-08T15:07:15.995Z,99562.91
2023-04-08T15:10:17.662Z,99577.34
2023-04-08T15:13:27.190Z,99576.78
2023-04-08T15:16:28.877Z,99575.47
2023-04-08T15:19:42.740Z,99577.47
2023-04-08T15:22:44.922Z,99587.78
2023-04-08T15:25:46.513Z,99586.41
2023-04-08T15:28:48.356Z,99573.28
2023-04-08T15:31:50.205Z,99567.72
2023-04-08T15:34:52.698Z,99586.56
2023-04-08T15:37:54.670Z,99558.31
2023-04-08T15:40:57.216Z,99593.19
2023-04-08T15:44:00.924Z,99562.88
2023-04-08T15:47:05.515Z,99574.81
2023-04-08T15:50:09.927Z,99593.00
2023-04-08T15:53:13.226Z,99573.56
2023-04-08T15:56:20.926Z,99580.59
2023-04-08T15:59:47.645Z,99591.22
2023-04-08T16:02:50.153Z,99572.28
2023-04-08T16:05:52.836Z,99569.66
2023-04-08T16:08:54.538Z,99586.97
2023-04-08T16:11:58.226Z,99597.00
2023-04-08T16:15:02.457Z,99569.50
2023-04-08T16:18:05.468Z,99571.38
2023-04-08T16:21:10.932Z,99588.72
2023-04-08T16:24:12.533Z,99574.25
2023-04-08T16:27:17.265Z,99578.53
2023-04-08T16:33:34.580Z,99581.75
2023-04-08T16:36:36.145Z,99595.91
2023-04-08T16:39:48.030Z,99606.75
2023-04-08T16:42:50.392Z,99596.88
2023-04-08T16:45:53.055Z,99594.97
2023-04-08T16:48:55.331Z,99609.13
2023-04-08T16:51:58.989Z,99599.75
2023-04-08T16:55:01.950Z,99614.88
2023-04-08T16:58:11.462Z,99606.41
2023-04-08T17:01:16.503Z,99618.03
2023-04-08T17:04:28.311Z,99609.63
2023-04-08T17:07:31.161Z,99617.88
2023-04-08T17:10:35.099Z,99617.09
2023-04-08T17:13:41.084Z,99614.53
2023-04-08T17:16:51.932Z,99612.44
2023-04-08T17:19:53.561Z,99627.84
2023-04-08T17:22:56.241Z,99611.59
2023-04-08T17:25:57.888Z,99610.66
2023-04-08T17:29:01.621Z,99624.66
2023-04-08T17:32:03.553Z,99606.28
2023-04-08T17:38:24.214Z,99625.41
2023-04-08T17:41:38.953Z,99639.75
2023-04-08T17:44:49.855Z,99620.59
2023-04-08T17:47:52.211Z,99635.53
2023-04-08T17:51:20.955Z,99639.38
2023-04-08T17:54:22.889Z,99636.56
2023-04-08T17:57:24.547Z,99617.47
2023-04-08T18:00:37.453Z,99646.47
2023-04-08T18:03:39.188Z,99648.72
2023-04-08T18:06:41.130Z,99652.63
2023-04-08T18:09:42.747Z,99625.97
2023-04-08T18:12:48.998Z,99646.53
2023-04-08T18:15:50.841Z,99657.47
2023-04-08T18:18:52.570Z,99636.31
2023-04-08T18:21:55.300Z,99642.63
2023-04-08T18:25:12.266Z,99664.72
2023-04-08T18:28:13.829Z,99675.38
2023-04-08T18:31:15.639Z,99673.91
2023-04-08T18:34:18.602Z,99668.88
2023-04-08T18:37:30.294Z,99691.56
2023-04-08T18:40:31.827Z,99686.31
2023-04-08T18:43:35.900Z,99689.13
2023-04-08T18:46:37.886Z,99677.78
2023-04-08T18:49:39.509Z,99695.44
2023-04-08T18:52:41.882Z,99698.06
2023-04-08T18:55:46.465Z,99707.66
2023-04-08T18:58:49.824Z,99712.84
2023-04-08T19:01:55.050Z,99701.41
2023-04-08T19:05:00.584Z,99722.22
2023-04-08T19:08:05.101Z,99725.22
2023-04-08T19:11:07.498Z,99724.59
2023-04-08T19:14:09.051Z,99720.00
2023-04-08T19:17:11.564Z,99710.91
2023-04-08T19:20:16.287Z,99724.41
2023-04-08T19:23:18.901Z,99716.84
2023-04-08T19:26:22.821Z,99724.25
2023-04-08T19:29:24.555Z,99722.75
2023-04-08T19:32:26.630Z,99723.47
2023-04-08T19:35:28.397Z,99720.28
2023-04-08T19:38:32.697Z,99722.38
2023-04-08T19:41:34.532Z,99713.69
2023-04-08T19:44:41.491Z,99723.25
2023-04-08T19:47:46.949Z,99734.47
2023-04-08T19:50:54.730Z,99729.56
2023-04-08T19:53:56.719Z,99726.09
2023-04-08T19:57:03.198Z,99733.16
2023-04-08T20:00:04.811Z,99726.47
2023-04-08T20:03:14.417Z,99731.66
2023-04-08T20:06:17.517Z,99729.59
2023-04-08T20:09:22.710Z,99730.06
2023-04-08T20:12:24.281Z,99714.88
2023-04-08T20:15:33.081Z,99740.94
2023-04-08T20:18:38.788Z,99735.34
2023-04-08T20:21:40.324Z,99738.63
2023-04-08T20:24:44.521Z,99742.56
2023-04-08T20:27:46.158Z,99737.25
2023-04-08T20:30:48.131Z,99734.03
2023-04-08T20:33:53.334Z,99734.34
2023-04-08T20:36:57.031Z,99733.88
2023-04-08T20:40:02.320Z,99726.47
2023-04-08T20:43:03.919Z,99723.06
2023-04-08T20:46:13.798Z,99716.00
2023-04-08T20:49:16.201Z,99722.00
2023-04-08T20:52:23.912Z,99731.47
2023-04-08T20:55:25.690Z,99730.75
2023-04-08T20:58:30.019Z,99727.28
2023-04-08T21:01:31.927Z,99728.84
2023-04-08T21:04:33.935Z,99726.28
2023-04-08T21:07:38.337Z,99719.34
2023-04-08T21:10:39.886Z,99728.22
2023-04-08T21:13:41.499Z,99731.19
2023-04-08T21:16:48.440Z,99724.03
2023-04-08T21:19:50.452Z,99722.22
2023-04-08T21:22:52.041Z,99723.41
2023-04-08T21:25:53.660Z,99728.09
2023-04-08T21:28:58.324Z,99728.56
2023-04-08T21:31:59.895Z,99734.19
2023-04-08T21:35:13.676Z,99737.53
2023-04-08T21:38:16.176Z,99737.34
2023-04-08T21:41:21.350Z,99729.56
2023-04-08T21:44:23.003Z,99730.50
2023-04-08T21:47:26.801Z,99735.31
2023-04-08T21:50:28.438Z,99739.03
2023-04-08T21:53:30.713Z,99725.88
2023-04-08T21:56:32.672Z,99742.50
2023-04-08T21:59:37.156Z,99739.75
2023-04-08T22:02:41.178Z,99735.94
2023-04-08T22:05:52.227Z,99726.34
2023-04-08T22:08:54.249Z,99737.63
2023-04-08T22:12:02.447Z,99730.31
2023-04-08T22:15:04.364Z,99736.28
2023-04-08T22:18:08.061Z,99734.25
2023-04-08T22:21:09.628Z,99714.09
2023-04-08T22:24:14.352Z,99730.94
2023-04-08T22:27:25.179Z,99736.81
2023-04-08T22:30:27.330Z,99738.50
2023-04-08T22:33:30.716Z,99733.69
2023-04-08T22:36:35.454Z,99742.00
2023-04-08T22:39:37.114Z,99724.41
2023-04-08T22:42:44.932Z,99728.47
2023-04-08T22:49:09.138Z,99732.72
2023-04-08T22:52:11.817Z,99709.72
2023-04-08T22:55:25.359Z,99714.69
2023-04-08T22:58:26.928Z,99705.31
2023-04-08T23:01:28.616Z,99724.22
2023-04-08T23:04:31.799Z,99706.34
2023-04-08T23:07:39.767Z,99721.38
2023-04-08T23:10:41.746Z,99700.13
2023-04-08T23:13:43.361Z,99717.03
2023-04-08T23:16:45.045Z,99690.66
2023-04-08T23:19:57.401Z,99711.13
2023-04-08T23:22:59.130Z,99698.03
2023-04-08T23:26:00.937Z,99673.41
2023-04-08T23:29:02.628Z,99688.91
2023-04-08T23:32:04.383Z,99705.75
2023-04-08T23:35:08.333Z,99698.47
2023-04-08T23:38:19.201Z,99675.22
2023-04-08T23:41:26.981Z,99690.81
2023-04-08T23:44:30.897Z,99683.69
2023-04-08T23:47:35.879Z,99687.53
2023-04-08T23:50:37.580Z,99701.88
2023-04-08T23:53:41.257Z,99685.59
2023-04-08T23:56:43.140Z,99665.78
2023-04-08T23:59:44.786Z,99673.56
